createdAt,value
2023-03-11T00:00:33.827Z,8.80
2023-03-11T00:03:02.160Z,8.70
2023-03-11T00:05:33.580Z,8.70
2023-03-11T00:08:01.449Z,8.70
2023-03-11T00:10:36.188Z,8.80
2023-03-11T00:13:05.072Z,8.80
2023-03-11T00:15:32.884Z,8.80
2023-03-11T00:17:59.847Z,8.80
2023-03-11T00:20:32.980Z,8.80
2023-03-11T00:23:14.729Z,8.80
2023-03-11T00:26:22.146Z,8.80
2023-03-11T00:28:51.942Z,8.80
2023-03-11T00:34:49.866Z,8.90
2023-03-11T00:37:25.779Z,9.00
2023-03-11T00:39:52.692Z,8.90
2023-03-11T00:42:38.026Z,8.70
2023-03-11T00:45:05.421Z,8.60
2023-03-11T00:47:32.233Z,8.50
2023-03-11T00:49:59.204Z,8.50
2023-03-11T00:52:26.031Z,8.60
2023-03-11T00:54:52.879Z,8.60
2023-03-11T00:57:19.668Z,8.60
2023-03-11T00:59:46.658Z,8.60
2023-03-11T01:02:13.969Z,8.60
2023-03-11T01:04:40.849Z,8.50
2023-03-11T01:07:11.279Z,8.50
2023-03-11T01:09:38.351Z,8.40
2023-03-11T01:12:05.337Z,8.30
2023-03-11T01:14:32.277Z,8.30
2023-03-11T01:16:59.145Z,8.30
2023-03-11T01:19:25.976Z,8.20
2023-03-11T01:21:52.882Z,8.20
2023-03-11T01:24:19.786Z,8.20
2023-03-11T01:26:46.704Z,8.20
2023-03-11T01:29:13.491Z,8.10
2023-03-11T01:31:40.272Z,8.20
2023-03-11T01:34:07.139Z,8.10
2023-03-11T01:36:34.030Z,8.00
2023-03-11T01:39:00.863Z,8.00
2023-03-11T01:41:27.698Z,8.00
2023-03-11T01:43:55.298Z,8.00
2023-03-11T01:46:26.473Z,7.90
2023-03-11T01:49:01.947Z,7.90
2023-03-11T01:51:49.885Z,7.90
2023-03-11T01:54:29.064Z,7.90
2023-03-11T01:56:56.615Z,7.90
2023-03-11T01:59:29.068Z,7.90
2023-03-11T02:02:07.257Z,7.80
2023-03-11T02:04:35.828Z,7.80
2023-03-11T02:07:04.388Z,7.70
2023-03-11T02:09:31.213Z,7.70
2023-03-11T02:11:58.438Z,7.60
2023-03-11T02:14:26.398Z,7.60
2023-03-11T02:16:53.687Z,7.60
2023-03-11T02:19:35.713Z,7.50
2023-03-11T02:22:03.136Z,7.50
2023-03-11T02:25:02.959Z,7.50
2023-03-11T02:27:32.562Z,7.40
2023-03-11T02:30:00.749Z,7.50
2023-03-11T02:32:28.333Z,7.40
2023-03-11T02:34:55.185Z,7.50
2023-03-11T02:37:21.958Z,7.40
2023-03-11T02:39:52.200Z,7.40
2023-03-11T02:42:28.505Z,7.40
2023-03-11T02:45:00.245Z,7.30
2023-03-11T02:47:27.733Z,7.30
2023-03-11T02:49:56.042Z,7.30
2023-03-11T02:52:28.217Z,7.20
2023-03-11T02:54:55.580Z,7.20
2023-03-11T02:57:22.447Z,7.00
2023-03-11T02:59:49.268Z,7.00
2023-03-11T03:02:16.267Z,6.90
2023-03-11T03:04:43.061Z,6.90
2023-03-11T03:07:09.960Z,6.90
2023-03-11T03:09:38.102Z,6.90
2023-03-11T03:12:05.551Z,6.80
2023-03-11T03:14:32.511Z,6.80
2023-03-11T03:16:59.590Z,6.80
2023-03-11T03:19:26.487Z,6.80
2023-03-11T03:21:53.271Z,6.70
2023-03-11T03:24:20.070Z,6.60
2023-03-11T03:26:46.891Z,6.60
2023-03-11T03:29:13.660Z,6.60
2023-03-11T03:31:40.540Z,6.60
2023-03-11T03:34:07.426Z,6.60
2023-03-11T03:36:34.262Z,6.60
2023-03-11T03:39:01.639Z,6.50
2023-03-11T03:41:29.701Z,6.50
2023-03-11T03:43:56.753Z,6.50
2023-03-11T03:46:23.805Z,6.50
2023-03-11T03:48:51.056Z,6.50
2023-03-11T03:51:18.360Z,6.50
2023-03-11T03:53:46.582Z,6.40
2023-03-11T03:56:16.804Z,6.40
2023-03-11T03:58:43.541Z,6.40
2023-03-11T04:01:11.790Z,6.40
2023-03-11T04:03:39.540Z,6.40
2023-03-11T04:06:07.331Z,6.50
2023-03-11T04:08:34.140Z,6.50
2023-03-11T04:11:00.931Z,6.50
2023-03-11T04:13:28.081Z,6.60
2023-03-11T04:15:54.884Z,6.60
2023-03-11T04:18:22.908Z,6.70
2023-03-11T04:20:49.723Z,6.70
2023-03-11T04:23:16.774Z,6.70
2023-03-11T04:25:43.580Z,6.70
2023-03-11T04:28:10.433Z,6.70
2023-03-11T04:30:37.326Z,6.70
2023-03-11T04:33:04.152Z,6.80
2023-03-11T04:35:30.990Z,6.70
2023-03-11T04:37:57.881Z,6.70
2023-03-11T04:40:24.710Z,6.70
2023-03-11T04:42:52.924Z,6.70
2023-03-11T04:45:19.797Z,6.70
2023-03-11T04:47:51.871Z,6.70
2023-03-11T04:50:19.328Z,6.70
2023-03-11T04:52:46.547Z,6.70
2023-03-11T04:55:13.950Z,6.80
2023-03-11T04:57:42.012Z,6.80
2023-03-11T05:00:11.807Z,6.80
2023-03-11T05:02:39.930Z,6.80
2023-03-11T05:05:08.420Z,6.80
2023-03-11T05:07:36.195Z,6.80
2023-03-11T05:10:04.753Z,6.80
2023-03-11T05:12:31.568Z,6.70
2023-03-11T05:14:58.382Z,6.70
2023-03-11T05:17:28.804Z,6.80
2023-03-11T05:19:55.716Z,6.80
2023-03-11T05:22:22.612Z,6.90
2023-03-11T05:24:49.796Z,6.90
2023-03-11T05:27:18.149Z,6.90
2023-03-11T05:32:26.201Z,6.90
2023-03-11T05:34:53.030Z,6.90
2023-03-11T05:37:19.900Z,6.90
2023-03-11T05:39:46.819Z,6.90
2023-03-11T05:42:13.764Z,6.90
2023-03-11T05:44:41.486Z,7.00
2023-03-11T05:47:08.388Z,7.10
2023-03-11T05:49:35.308Z,7.00
2023-03-11T05:52:02.118Z,7.10
2023-03-11T05:54:29.068Z,7.10
2023-03-11T05:56:55.990Z,7.10
2023-03-11T05:59:23.372Z,7.10
2023-03-11T06:01:50.322Z,7.10
2023-03-11T06:04:17.280Z,7.10
2023-03-11T06:06:44.173Z,7.10
2023-03-11T06:09:15.010Z,7.10
2023-03-11T06:11:42.423Z,7.10
2023-03-11T06:14:14.056Z,7.10
2023-03-11T06:16:42.105Z,7.20
2023-03-11T06:19:09.360Z,7.10
2023-03-11T06:21:36.213Z,7.20
2023-03-11T06:24:03.101Z,7.30
2023-03-11T06:26:30.051Z,7.40
2023-03-11T06:28:56.918Z,7.40
2023-03-11T06:31:26.965Z,7.40
2023-03-11T06:33:59.018Z,7.50
2023-03-11T06:36:26.329Z,7.50
2023-03-11T06:38:54.472Z,7.50
2023-03-11T06:41:21.619Z,7.50
2023-03-11T06:43:49.562Z,7.50
2023-03-11T06:46:19.676Z,7.50
2023-03-11T06:48:46.905Z,7.60
2023-03-11T06:51:14.284Z,7.70
2023-03-11T06:53:41.292Z,7.70
2023-03-11T06:56:10.801Z,7.90
2023-03-11T06:58:39.412Z,7.90
2023-03-11T07:01:19.712Z,7.90
2023-03-11T07:03:47.917Z,8.00
2023-03-11T07:06:17.378Z,8.10
2023-03-11T07:08:45.798Z,8.20
2023-03-11T07:11:34.603Z,8.30
2023-03-11T07:14:01.385Z,8.30
2023-03-11T07:16:30.598Z,8.30
2023-03-11T07:19:00.942Z,8.20
2023-03-11T07:21:29.745Z,8.20
2023-03-11T07:23:58.992Z,8.30
2023-03-11T07:26:27.185Z,8.20
2023-03-11T07:28:55.154Z,8.20
2023-03-11T07:31:25.169Z,8.10
2023-03-11T07:33:53.053Z,8.10
2023-03-11T07:36:26.946Z,8.20
2023-03-11T07:38:59.622Z,8.20
2023-03-11T07:41:27.344Z,8.10
2023-03-11T07:43:56.079Z,8.10
2023-03-11T07:46:24.437Z,8.10
2023-03-11T07:48:52.190Z,8.20
2023-03-11T07:51:20.346Z,8.10
2023-03-11T07:53:47.852Z,8.00
2023-03-11T07:56:16.648Z,8.00
2023-03-11T07:58:45.724Z,8.00
2023-03-11T08:01:18.405Z,7.90
2023-03-11T08:03:46.994Z,8.00
2023-03-11T08:06:19.912Z,7.90
2023-03-11T08:08:47.400Z,7.90
2023-03-11T08:11:15.472Z,7.90
2023-03-11T08:16:45.329Z,7.90
2023-03-11T08:19:13.329Z,8.10
2023-03-11T08:21:40.190Z,8.10
2023-03-11T08:24:07.672Z,8.00
2023-03-11T08:26:34.554Z,7.80
2023-03-11T08:29:01.504Z,7.90
2023-03-11T08:31:30.908Z,7.90
2023-03-11T08:34:07.936Z,7.80
2023-03-11T08:36:34.928Z,7.70
2023-03-11T08:39:02.016Z,7.70
2023-03-11T08:41:29.178Z,7.70
2023-03-11T08:43:56.223Z,7.70
2023-03-11T08:46:32.914Z,7.70
2023-03-11T08:49:01.300Z,7.50
2023-03-11T08:51:30.285Z,7.70
2023-03-11T08:53:57.723Z,7.60
2023-03-11T08:56:27.456Z,7.50
2023-03-11T08:58:55.106Z,7.50
2023-03-11T09:01:23.648Z,7.40
2023-03-11T09:03:52.354Z,7.30
2023-03-11T09:06:19.796Z,7.10
2023-03-11T09:08:48.037Z,7.10
2023-03-11T09:11:16.390Z,7.00
2023-03-11T09:13:45.252Z,7.00
2023-03-11T09:16:14.253Z,6.90
2023-03-11T09:18:41.105Z,6.90
2023-03-11T09:21:08.251Z,6.80
2023-03-11T09:23:35.149Z,6.90
2023-03-11T09:26:03.950Z,6.90
2023-03-11T09:28:30.869Z,6.90
2023-03-11T09:31:07.948Z,6.90
2023-03-11T09:33:46.581Z,6.80
2023-03-11T09:36:15.626Z,6.90
2023-03-11T09:38:42.960Z,6.90
2023-03-11T09:49:06.477Z,6.70
2023-03-11T09:52:14.123Z,6.70
2023-03-11T09:54:45.431Z,6.60
2023-03-11T09:57:17.815Z,6.60
2023-03-11T09:59:46.942Z,6.60
2023-03-11T10:02:20.122Z,6.40
2023-03-11T10:05:20.432Z,5.80
2023-03-11T10:07:57.400Z,5.50
2023-03-11T10:10:26.020Z,5.30
2023-03-11T10:13:10.805Z,5.00
2023-03-11T10:15:54.042Z,4.80
2023-03-11T10:18:38.978Z,4.50
2023-03-11T10:21:14.724Z,4.50
2023-03-11T10:24:42.981Z,4.50
2023-03-11T10:27:17.002Z,4.40
2023-03-11T10:29:43.906Z,4.20
2023-03-11T10:32:19.403Z,4.00
2023-03-11T10:34:53.311Z,3.80
2023-03-11T10:37:46.548Z,3.60
2023-03-11T10:40:26.659Z,3.80
2023-03-11T10:42:56.402Z,3.80
2023-03-11T10:45:24.025Z,3.60
2023-03-11T10:47:51.142Z,3.50
2023-03-11T10:50:20.019Z,3.40
2023-03-11T10:53:06.793Z,3.40
2023-03-11T10:55:34.526Z,3.40
2023-03-11T10:58:06.907Z,3.20
2023-03-11T11:00:33.927Z,3.10
2023-03-11T11:03:02.114Z,3.00
2023-03-11T11:05:34.228Z,2.90
2023-03-11T11:08:21.347Z,3.00
2023-03-11T11:11:00.216Z,2.90
2023-03-11T11:13:31.229Z,2.90
2023-03-11T11:16:17.162Z,2.90
2023-03-11T11:18:52.642Z,2.80
2023-03-11T11:21:37.893Z,2.80
2023-03-11T11:24:25.091Z,2.70
2023-03-11T11:27:15.484Z,2.60
2023-03-11T11:29:43.053Z,2.40
2023-03-11T11:32:19.126Z,2.30
2023-03-11T11:35:18.555Z,2.30
2023-03-11T11:37:51.902Z,2.30
2023-03-11T11:40:26.359Z,2.30
2023-03-11T11:42:57.831Z,2.40
2023-03-11T11:45:36.748Z,2.20
2023-03-11T11:48:21.857Z,2.10
2023-03-11T11:51:00.171Z,2.10
2023-03-11T11:53:49.828Z,2.10
2023-03-11T11:56:16.643Z,2.20
2023-03-11T11:58:43.755Z,2.10
2023-03-11T12:01:16.083Z,2.00
2023-03-11T12:04:03.167Z,2.00
2023-03-11T12:06:54.694Z,2.00
2023-03-11T12:09:52.270Z,2.10
2023-03-11T12:12:46.786Z,2.10
2023-03-11T12:15:26.429Z,2.10
2023-03-11T12:17:59.398Z,2.00
2023-03-11T12:20:54.238Z,1.80
2023-03-11T12:23:36.158Z,1.70
2023-03-11T12:26:24.808Z,1.60
2023-03-11T12:28:58.728Z,1.60
2023-03-11T12:31:29.099Z,1.40
2023-03-11T12:34:03.274Z,1.30
2023-03-11T12:36:38.705Z,1.30
2023-03-11T12:39:09.276Z,1.30
2023-03-11T12:41:42.509Z,1.30
2023-03-11T12:44:22.542Z,1.40
2023-03-11T12:46:58.348Z,1.40
2023-03-11T12:49:31.953Z,1.30
2023-03-11T12:52:14.075Z,1.30
2023-03-11T12:54:44.794Z,1.20
2023-03-11T12:57:20.474Z,1.20
2023-03-11T13:00:23.135Z,1.10
2023-03-11T13:03:01.067Z,1.20
2023-03-11T13:05:57.632Z,1.20
2023-03-11T13:08:27.983Z,1.10
2023-03-11T13:10:56.540Z,1.20
2023-03-11T13:13:42.569Z,1.10
2023-03-11T13:16:15.460Z,1.10
2023-03-11T13:18:44.304Z,1.20
2023-03-11T13:21:32.250Z,1.20
2023-03-11T13:24:27.040Z,1.20
2023-03-11T13:26:59.830Z,1.20
2023-03-11T13:30:01.144Z,1.20
2023-03-11T13:32:54.049Z,1.20
2023-03-11T13:35:33.481Z,1.00
2023-03-11T13:38:12.140Z,1.00
2023-03-11T13:40:40.386Z,0.90
2023-03-11T13:43:18.703Z,0.90
2023-03-11T13:46:26.467Z,0.80
2023-03-11T13:49:03.033Z,0.70
2023-03-11T13:51:42.274Z,0.60
2023-03-11T13:54:22.560Z,0.70
2023-03-11T13:56:59.795Z,0.70
2023-03-11T13:59:31.879Z,0.80
2023-03-11T14:02:18.355Z,0.80
2023-03-11T14:04:50.927Z,0.70
2023-03-11T14:07:20.490Z,0.70
2023-03-11T14:09:47.334Z,0.70
2023-03-11T14:12:16.508Z,0.70
2023-03-11T14:14:56.413Z,0.70
2023-03-11T14:17:23.272Z,0.70
2023-03-11T14:20:17.701Z,0.60
2023-03-11T14:22:47.880Z,0.70
2023-03-11T14:25:24.557Z,0.70
2023-03-11T14:28:00.916Z,0.70
2023-03-11T14:30:35.966Z,0.70
2023-03-11T14:33:23.267Z,0.70
2023-03-11T14:35:59.968Z,0.80
2023-03-11T14:38:30.992Z,0.80
2023-03-11T14:41:05.297Z,0.80
2023-03-11T14:43:41.140Z,0.80
2023-03-11T14:46:08.876Z,0.80
2023-03-11T14:48:39.952Z,0.70
2023-03-11T14:51:23.916Z,0.70
2023-03-11T14:53:59.782Z,0.70
2023-03-11T14:56:27.594Z,0.70
2023-03-11T14:59:12.462Z,0.70
2023-03-11T15:01:41.782Z,0.80
2023-03-11T15:04:26.956Z,0.80
2023-03-11T15:06:55.304Z,0.80
2023-03-11T15:09:23.983Z,0.90
2023-03-11T15:12:00.828Z,0.90
2023-03-11T15:14:32.488Z,0.90
2023-03-11T15:17:38.563Z,1.00
2023-03-11T15:20:31.954Z,1.00
2023-03-11T15:23:02.529Z,0.90
2023-03-11T15:25:35.878Z,0.90
2023-03-11T15:28:27.429Z,0.90
2023-03-11T15:31:22.355Z,1.00
2023-03-11T15:33:51.712Z,1.00
2023-03-11T15:36:49.374Z,1.00
2023-03-11T15:39:20.170Z,1.10
2023-03-11T15:42:03.713Z,1.00
2023-03-11T15:44:36.224Z,1.10
2023-03-11T15:47:04.293Z,1.00
2023-03-11T15:49:31.726Z,1.00
2023-03-11T15:51:59.764Z,1.10
2023-03-11T15:54:27.192Z,1.10
2023-03-11T15:56:55.276Z,1.00
2023-03-11T15:59:23.591Z,1.00
2023-03-11T16:01:50.585Z,1.00
2023-03-11T16:04:19.582Z,1.00
2023-03-11T16:06:56.518Z,1.00
2023-03-11T16:09:31.617Z,1.00
2023-03-11T16:11:59.206Z,1.00
2023-03-11T16:14:26.164Z,1.00
2023-03-11T16:16:52.977Z,1.00
2023-03-11T16:19:20.026Z,1.00
2023-03-11T16:21:50.358Z,1.00
2023-03-11T16:24:22.296Z,1.00
2023-03-11T16:26:51.609Z,1.00
2023-03-11T16:29:20.078Z,1.00
2023-03-11T16:31:47.266Z,1.00
2023-03-11T16:34:14.105Z,1.00
2023-03-11T16:36:41.074Z,1.00
2023-03-11T16:39:07.885Z,0.90
2023-03-11T16:41:42.909Z,0.90
2023-03-11T16:44:10.093Z,1.00
2023-03-11T16:46:37.319Z,0.90
2023-03-11T16:49:17.008Z,0.90
2023-03-11T16:51:44.160Z,0.90
2023-03-11T16:54:11.043Z,0.80
2023-03-11T16:56:41.731Z,0.80
2023-03-11T16:59:08.875Z,0.80
2023-03-11T17:01:39.260Z,0.70
2023-03-11T17:04:07.716Z,0.70
2023-03-11T17:06:47.012Z,0.60
2023-03-11T17:09:13.821Z,0.60
2023-03-11T17:11:40.608Z,0.60
2023-03-11T17:14:16.384Z,0.50
2023-03-11T17:16:45.188Z,0.50
2023-03-11T17:19:12.192Z,0.50
2023-03-11T17:21:39.675Z,0.50
2023-03-11T17:24:07.405Z,0.50
2023-03-11T17:26:34.261Z,0.50
2023-03-11T17:29:01.497Z,0.50
2023-03-11T17:31:28.638Z,0.50
2023-03-11T17:33:59.195Z,0.50
2023-03-11T17:36:26.476Z,0.50
2023-03-11T17:38:54.470Z,0.50
2023-03-11T17:41:23.318Z,0.50
2023-03-11T17:43:51.625Z,0.50
2023-03-11T17:46:20.557Z,0.50
2023-03-11T17:48:49.293Z,0.50
2023-03-11T17:51:27.116Z,0.50
2023-03-11T17:53:55.910Z,0.40
2023-03-11T17:56:23.032Z,0.50
2023-03-11T17:58:50.643Z,0.50
2023-03-11T18:01:23.141Z,0.50
2023-03-11T18:03:50.366Z,0.50
2023-03-11T18:06:19.199Z,0.50
2023-03-11T18:08:46.394Z,0.50
2023-03-11T18:11:18.896Z,0.40
2023-03-11T18:13:46.434Z,0.50
2023-03-11T18:16:26.012Z,0.50
2023-03-11T18:18:52.981Z,0.50
2023-03-11T18:21:26.448Z,0.40
2023-03-11T18:23:55.330Z,0.40
2023-03-11T18:26:31.553Z,0.40
2023-03-11T18:29:02.208Z,0.40
2023-03-11T18:31:30.546Z,0.40
2023-03-11T18:34:03.167Z,0.40
2023-03-11T18:36:32.567Z,0.40
2023-03-11T18:39:00.755Z,0.40
2023-03-11T18:41:30.977Z,0.30
2023-03-11T18:44:08.278Z,0.30
2023-03-11T18:46:35.650Z,0.30
2023-03-11T18:49:04.108Z,0.30
2023-03-11T18:51:32.171Z,0.30
2023-03-11T18:54:00.111Z,0.20
2023-03-11T18:56:27.574Z,0.20
2023-03-11T18:58:56.019Z,0.20
2023-03-11T19:01:22.967Z,0.20
2023-03-11T19:03:55.409Z,0.20
2023-03-11T19:06:27.907Z,0.20
2023-03-11T19:08:55.573Z,0.20
2023-03-11T19:11:24.113Z,0.10
2023-03-11T19:13:51.878Z,0.10
2023-03-11T19:16:22.110Z,0.10
2023-03-11T19:18:50.285Z,0.00
2023-03-11T19:21:18.036Z,0.10
2023-03-11T19:23:45.872Z,0.10
2023-03-11T19:26:13.376Z,0.10
2023-03-11T19:28:40.249Z,0.00
2023-03-11T19:31:07.109Z,0.00
2023-03-11T19:33:34.570Z,0.00
2023-03-11T19:36:04.295Z,0.00
2023-03-11T19:38:31.486Z,-0.10
2023-03-11T19:41:07.711Z,-0.10
2023-03-11T19:43:35.767Z,-0.10
2023-03-11T19:46:07.028Z,-0.10
2023-03-11T19:48:39.950Z,-0.20
2023-03-11T19:51:06.989Z,-0.20
2023-03-11T19:53:35.642Z,-0.20
2023-03-11T19:56:10.637Z,-0.20
2023-03-11T19:58:37.596Z,-0.20
2023-03-11T20:01:04.881Z,-0.20
2023-03-11T20:03:33.223Z,-0.20
2023-03-11T20:06:05.846Z,-0.20
2023-03-11T20:08:36.707Z,-0.20
2023-03-11T20:11:05.250Z,-0.20
2023-03-11T20:16:19.361Z,-0.30
2023-03-11T20:18:50.200Z,-0.30
2023-03-11T20:21:17.646Z,-0.30
2023-03-11T20:23:51.672Z,-0.30
2023-03-11T20:26:21.784Z,-0.40
2023-03-11T20:28:49.032Z,-0.20
2023-03-11T20:31:21.882Z,-0.40
2023-03-11T20:33:50.293Z,-0.40
2023-03-11T20:36:21.233Z,-0.40
2023-03-11T20:38:50.239Z,-0.40
2023-03-11T20:41:18.538Z,-0.40
2023-03-11T20:43:45.708Z,-0.40
2023-03-11T20:46:13.162Z,-0.40
2023-03-11T20:48:41.665Z,-0.50
2023-03-11T20:51:20.632Z,-0.50
2023-03-11T20:53:49.065Z,-0.50
2023-03-11T20:56:18.667Z,-0.60
2023-03-11T20:58:47.332Z,-0.50
2023-03-11T21:01:20.407Z,-0.60
2023-03-11T21:03:48.383Z,-0.50
2023-03-11T21:06:21.806Z,-0.50
2023-03-11T21:08:49.697Z,-0.50
2023-03-11T21:11:17.563Z,-0.50
2023-03-11T21:13:44.648Z,-0.40
2023-03-11T21:16:12.574Z,-0.40
2023-03-11T21:18:39.794Z,-0.40
2023-03-11T21:21:08.542Z,-0.30
2023-03-11T21:23:35.908Z,-0.30
2023-03-11T21:26:04.197Z,-0.30
2023-03-11T21:28:31.701Z,-0.30
2023-03-11T21:31:12.957Z,-0.30
2023-03-11T21:33:41.098Z,-0.20
2023-03-11T21:36:10.491Z,-0.20
2023-03-11T21:38:40.827Z,-0.10
2023-03-11T21:41:24.991Z,-0.10
2023-03-11T21:43:56.264Z,-0.10
2023-03-11T21:46:27.461Z,-0.10
2023-03-11T21:48:54.492Z,-0.20
2023-03-11T21:51:21.875Z,-0.20
2023-03-11T21:53:49.399Z,-0.20
2023-03-11T21:56:16.683Z,-0.30
2023-03-11T21:58:43.975Z,-0.30
2023-03-11T22:01:14.937Z,-0.30
2023-03-11T22:03:42.299Z,-0.30
2023-03-11T22:06:11.520Z,-0.30
2023-03-11T22:08:38.717Z,-0.20
2023-03-11T22:11:13.827Z,-0.20
2023-03-11T22:13:40.815Z,-0.10
2023-03-11T22:16:11.928Z,-0.10
2023-03-11T22:18:41.450Z,-0.10
2023-03-11T22:21:21.396Z,-0.10
2023-03-11T22:23:54.224Z,-0.10
2023-03-11T22:26:21.195Z,-0.10
2023-03-11T22:28:48.091Z,-0.10
2023-03-11T22:31:17.498Z,-0.10
2023-03-11T22:34:57.234Z,-0.10
2023-03-11T22:37:24.201Z,0.00
2023-03-11T22:39:51.080Z,-0.20
2023-03-11T22:42:17.978Z,-0.20
2023-03-11T22:44:44.778Z,-0.20
2023-03-11T22:47:11.928Z,-0.20
2023-03-11T22:49:38.866Z,-0.20
2023-03-11T22:52:05.815Z,-0.30
2023-03-11T22:54:32.632Z,-0.30
2023-03-11T22:57:11.840Z,-0.30
2023-03-11T22:59:38.674Z,-0.30
2023-03-11T23:02:05.615Z,-0.40
2023-03-11T23:04:35.163Z,-0.40
2023-03-11T23:07:02.060Z,-0.40
2023-03-11T23:09:28.885Z,-0.40
2023-03-11T23:12:11.218Z,-0.40
2023-03-11T23:14:45.065Z,-0.40
2023-03-11T23:17:22.491Z,-0.40
2023-03-11T23:19:49.563Z,-0.40
2023-03-11T23:22:16.361Z,-0.40
2023-03-11T23:24:43.265Z,-0.40
2023-03-11T23:27:10.117Z,-0.40
2023-03-11T23:29:37.099Z,-0.50
2023-03-11T23:32:03.999Z,-0.60
2023-03-11T23:34:30.836Z,-0.60
2023-03-11T23:36:57.760Z,-0.60
2023-03-11T23:39:24.593Z,-0.60
2023-03-11T23:41:51.420Z,-0.60
2023-03-11T23:44:18.262Z,-0.70
2023-03-11T23:46:45.116Z,-0.60
2023-03-11T23:49:11.863Z,-0.60
2023-03-11T23:51:38.691Z,-0.70
2023-03-11T23:54:06.801Z,-0.60
2023-03-11T23:56:33.642Z,-0.70
2023-03-11T23:59:01.832Z,-0.70
